createdAt,value
2023-10-23T00:02:54.373Z,12.00
2023-10-23T00:07:54.425Z,11.98
2023-10-23T00:12:55.346Z,11.93
2023-10-23T00:17:54.424Z,11.88
2023-10-23T00:22:54.805Z,11.86
2023-10-23T00:27:54.247Z,11.84
2023-10-23T00:32:54.283Z,11.82
2023-10-23T00:37:54.414Z,11.80
2023-10-23T00:42:54.240Z,11.72
2023-10-23T00:47:54.294Z,11.74
2023-10-23T00:52:54.792Z,11.73
2023-10-23T00:57:54.298Z,11.71
2023-10-23T01:02:54.339Z,11.68
2023-10-23T01:07:55.284Z,11.67
2023-10-23T01:12:54.356Z,11.66
2023-10-23T01:17:55.633Z,11.65
2023-10-23T01:22:57.087Z,11.66
2023-10-23T01:27:54.891Z,11.65
2023-10-23T01:32:54.270Z,11.66
2023-10-23T01:37:54.654Z,11.68
2023-10-23T01:42:54.537Z,11.66
2023-10-23T01:47:54.268Z,11.68
2023-10-23T01:52:54.520Z,11.67
2023-10-23T01:57:56.305Z,11.66
2023-10-23T02:02:54.759Z,11.58
2023-10-23T02:07:54.314Z,11.57
2023-10-23T02:12:54.398Z,11.56
2023-10-23T02:17:54.227Z,11.56
2023-10-23T02:22:54.292Z,11.61
2023-10-23T02:27:54.207Z,11.55
2023-10-23T02:32:54.339Z,11.53
2023-10-23T02:37:54.274Z,11.49
2023-10-23T02:42:54.200Z,11.41
2023-10-23T02:47:54.218Z,11.42
2023-10-23T02:52:54.450Z,11.42
2023-10-23T02:57:54.175Z,11.39
2023-10-23T03:02:54.175Z,11.35
2023-10-23T03:07:54.547Z,11.29
2023-10-23T03:12:54.153Z,11.32
2023-10-23T03:17:54.256Z,11.30
2023-10-23T03:22:54.196Z,11.25
2023-10-23T03:27:54.193Z,11.22
2023-10-23T03:32:54.370Z,11.27
2023-10-23T03:37:54.632Z,11.23
2023-10-23T03:42:54.188Z,11.18
2023-10-23T03:47:54.536Z,11.11
2023-10-23T03:52:54.222Z,11.10
2023-10-23T03:57:54.168Z,11.07
2023-10-23T04:02:54.106Z,11.04
2023-10-23T04:07:54.506Z,11.03
2023-10-23T04:12:54.091Z,11.01
2023-10-23T04:17:54.293Z,10.99
2023-10-23T04:22:54.215Z,11.00
2023-10-23T04:27:54.107Z,11.01
2023-10-23T04:32:54.098Z,10.97
2023-10-23T04:37:54.636Z,11.00
2023-10-23T04:42:54.131Z,11.01
2023-10-23T04:47:54.224Z,11.03
2023-10-23T04:52:54.191Z,11.04
2023-10-23T04:57:54.415Z,10.98
2023-10-23T05:02:54.817Z,11.01
2023-10-23T05:07:54.437Z,10.98
2023-10-23T05:12:54.217Z,10.95
2023-10-23T05:17:54.103Z,10.94
2023-10-23T05:22:54.289Z,10.91
2023-10-23T05:27:54.069Z,10.94
2023-10-23T05:32:54.091Z,10.97
2023-10-23T05:37:54.483Z,11.03
2023-10-23T05:42:54.023Z,11.07
2023-10-23T05:47:54.169Z,11.06
2023-10-23T05:52:54.115Z,11.13
2023-10-23T05:57:55.695Z,11.22
2023-10-23T06:02:54.251Z,11.26
2023-10-23T06:07:54.279Z,11.38
2023-10-23T06:12:54.005Z,11.39
2023-10-23T06:17:54.075Z,11.44
2023-10-23T06:22:54.158Z,11.40
2023-10-23T06:27:54.041Z,11.38
2023-10-23T06:32:54.050Z,11.42
2023-10-23T06:37:54.324Z,11.65
2023-10-23T06:42:54.095Z,12.00
2023-10-23T06:47:54.164Z,12.08
2023-10-23T06:52:54.065Z,12.03
2023-10-23T06:57:53.953Z,12.04
2023-10-23T07:02:53.979Z,11.99
2023-10-23T07:07:55.723Z,12.20
2023-10-23T07:12:55.058Z,12.58
2023-10-23T07:17:54.514Z,13.40
2023-10-23T07:22:54.313Z,13.12
2023-10-23T07:27:54.945Z,12.98
2023-10-23T07:32:53.993Z,12.77
2023-10-23T07:37:54.652Z,12.85
2023-10-23T07:42:53.988Z,12.78
2023-10-23T07:47:54.010Z,12.69
2023-10-23T07:52:54.284Z,12.51
2023-10-23T07:57:54.010Z,12.58
2023-10-23T08:02:54.008Z,12.70
2023-10-23T08:07:54.365Z,12.81
2023-10-23T08:12:53.945Z,12.77
2023-10-23T08:17:54.121Z,12.77
2023-10-23T08:22:54.350Z,12.99
2023-10-23T08:27:53.864Z,13.49
2023-10-23T08:32:54.381Z,14.54
2023-10-23T08:37:54.857Z,14.44
2023-10-23T08:42:53.955Z,14.19
2023-10-23T08:47:54.199Z,14.27
2023-10-23T08:52:57.836Z,14.36
2023-10-23T08:57:54.961Z,15.07
2023-10-23T09:02:54.888Z,15.64
2023-10-23T09:07:54.556Z,15.33
2023-10-23T09:12:55.525Z,15.40
2023-10-23T09:17:53.875Z,15.40
2023-10-23T09:22:55.877Z,15.25
2023-10-23T09:27:53.862Z,15.35
2023-10-23T09:32:55.367Z,15.31
2023-10-23T09:37:55.576Z,15.45
2023-10-23T09:42:59.014Z,15.22
2023-10-23T09:47:58.873Z,15.35
2023-10-23T09:52:57.051Z,15.29
2023-10-23T09:57:55.679Z,15.11
2023-10-23T10:02:55.874Z,14.92
2023-10-23T10:08:02.726Z,14.78
2023-10-23T10:12:55.429Z,14.71
2023-10-23T10:17:54.085Z,14.48
2023-10-23T10:23:01.414Z,14.35
2023-10-23T10:27:55.404Z,14.32
2023-10-23T10:34:26.407Z,14.15
2023-10-23T10:37:59.152Z,14.09
2023-10-23T10:42:55.440Z,14.04
2023-10-23T10:47:54.124Z,13.98
2023-10-23T10:52:59.724Z,13.96
2023-10-23T10:57:54.841Z,14.00
2023-10-23T11:02:56.689Z,14.03
2023-10-23T11:07:54.734Z,14.10
2023-10-23T11:12:53.994Z,14.11
2023-10-23T11:17:54.191Z,14.25
2023-10-23T11:22:54.727Z,14.29
2023-10-23T11:27:54.977Z,14.39
2023-10-23T11:32:53.998Z,14.34
2023-10-23T11:37:55.602Z,14.33
2023-10-23T11:42:55.143Z,14.44
2023-10-23T11:47:53.865Z,14.36
2023-10-23T11:52:54.113Z,14.32
2023-10-23T11:57:54.672Z,14.41
2023-10-23T12:02:54.182Z,14.43
2023-10-23T12:07:55.712Z,14.42
2023-10-23T12:12:55.153Z,14.52
2023-10-23T12:17:53.830Z,14.67
2023-10-23T12:22:53.866Z,14.82
2023-10-23T12:27:53.785Z,14.84
2023-10-23T12:33:15.012Z,14.82
2023-10-23T12:37:53.929Z,14.99
2023-10-23T12:42:53.809Z,15.04
2023-10-23T12:47:53.868Z,15.00
2023-10-23T12:52:54.149Z,15.05
2023-10-23T12:57:53.744Z,15.22
2023-10-23T13:02:53.947Z,15.28
2023-10-23T13:07:54.055Z,15.51
2023-10-23T13:12:53.750Z,15.64
2023-10-23T13:17:56.090Z,15.47
2023-10-23T13:22:53.889Z,15.31
2023-10-23T13:27:53.811Z,15.27
2023-10-23T13:32:53.797Z,15.04
2023-10-23T13:37:53.986Z,14.81
2023-10-23T13:42:53.750Z,14.70
2023-10-23T13:52:53.745Z,14.32
2023-10-23T13:57:55.365Z,14.17
2023-10-23T14:02:53.752Z,14.02
2023-10-23T14:07:53.851Z,13.80
2023-10-23T14:12:53.805Z,13.62
2023-10-23T14:17:53.933Z,13.45
2023-10-23T14:22:54.113Z,13.33
2023-10-23T14:27:54.250Z,13.24
2023-10-23T14:32:53.681Z,13.15
2023-10-23T14:37:54.931Z,13.10
2023-10-23T14:42:54.755Z,13.09
2023-10-23T14:47:53.802Z,13.08
2023-10-23T14:52:53.828Z,13.06
2023-10-23T14:57:53.709Z,13.05
2023-10-23T15:02:53.698Z,12.98
2023-10-23T15:07:53.927Z,12.90
2023-10-23T15:12:53.806Z,12.81
2023-10-23T15:21:48.626Z,12.70
2023-10-23T15:22:53.612Z,12.57
2023-10-23T15:27:53.689Z,12.44
2023-10-23T15:32:53.849Z,12.29
2023-10-23T15:37:54.369Z,12.20
2023-10-23T15:42:53.717Z,12.08
2023-10-23T15:47:59.493Z,11.91
2023-10-23T15:52:53.665Z,11.81
2023-10-23T15:57:53.870Z,11.72
2023-10-23T16:02:54.001Z,11.63
2023-10-23T16:07:53.711Z,11.52
2023-10-23T16:12:53.690Z,11.45
2023-10-23T16:17:55.089Z,11.35
2023-10-23T16:22:53.868Z,11.25
2023-10-23T16:27:54.908Z,11.20
2023-10-23T16:32:54.596Z,11.21
2023-10-23T16:37:53.622Z,11.15
2023-10-23T16:49:13.002Z,10.97
2023-10-23T16:52:53.566Z,10.86
2023-10-23T16:57:53.867Z,10.81
2023-10-23T17:02:54.323Z,10.74
2023-10-23T17:07:54.258Z,10.66
2023-10-23T17:17:43.062Z,10.59
2023-10-23T17:17:53.562Z,10.59
2023-10-23T17:22:53.657Z,10.55
2023-10-23T17:27:54.281Z,10.49
2023-10-23T17:32:53.633Z,10.50
2023-10-23T17:37:53.654Z,10.52
2023-10-23T17:42:53.737Z,10.52
2023-10-23T17:47:53.757Z,10.54
2023-10-23T17:52:53.569Z,10.53
2023-10-23T17:57:54.172Z,10.48
2023-10-23T18:02:53.765Z,10.40
2023-10-23T18:07:55.600Z,10.39
2023-10-23T18:12:53.813Z,10.33
2023-10-23T18:17:53.801Z,10.23
2023-10-23T18:22:56.902Z,10.17
2023-10-23T18:27:53.615Z,10.15
2023-10-23T18:32:53.584Z,10.14
2023-10-23T18:37:54.059Z,10.12
2023-10-23T18:42:56.193Z,10.13
2023-10-23T18:48:15.737Z,10.10
2023-10-23T18:52:54.297Z,10.04
2023-10-23T18:57:53.753Z,9.93
2023-10-23T19:02:53.628Z,9.86
2023-10-23T19:07:53.472Z,9.77
2023-10-23T19:12:53.685Z,9.68
2023-10-23T19:17:53.850Z,9.61
2023-10-23T19:22:58.928Z,9.51
2023-10-23T19:27:53.480Z,9.39
2023-10-23T19:32:56.193Z,9.31
2023-10-23T19:37:54.047Z,9.23
2023-10-23T19:42:57.325Z,9.17
2023-10-23T19:47:54.261Z,9.13
2023-10-23T19:52:54.527Z,9.05
2023-10-23T19:57:53.952Z,8.99
2023-10-23T20:02:54.691Z,8.91
2023-10-23T20:07:54.180Z,8.89
2023-10-23T20:12:53.576Z,8.82
2023-10-23T20:17:54.852Z,8.79
2023-10-23T20:22:53.709Z,8.78
2023-10-23T20:27:53.512Z,8.74
2023-10-23T20:32:53.786Z,8.67
2023-10-23T20:37:53.779Z,8.65
2023-10-23T20:42:53.491Z,8.62
2023-10-23T20:47:53.507Z,8.56
2023-10-23T20:52:53.623Z,8.55
2023-10-23T20:57:53.357Z,8.53
2023-10-23T21:02:53.501Z,8.48
2023-10-23T21:07:53.672Z,8.34
2023-10-23T21:12:53.466Z,8.30
2023-10-23T21:17:53.477Z,8.23
2023-10-23T21:22:53.747Z,8.20
2023-10-23T21:27:54.754Z,8.24
2023-10-23T21:32:53.335Z,8.23
2023-10-23T21:37:53.760Z,8.28
2023-10-23T21:42:53.414Z,8.30
2023-10-23T21:47:53.635Z,8.31
2023-10-23T21:52:53.987Z,8.24
2023-10-23T21:57:53.630Z,8.21
2023-10-23T22:02:54.438Z,8.11
2023-10-23T22:07:54.864Z,8.01
2023-10-23T22:12:54.814Z,7.96
2023-10-23T22:17:53.479Z,7.93
2023-10-23T22:22:53.405Z,7.92
2023-10-23T22:27:53.463Z,7.86
2023-10-23T22:33:07.957Z,7.81
2023-10-23T22:38:06.024Z,7.80
2023-10-23T22:42:53.327Z,7.82
2023-10-23T22:47:53.684Z,7.80
2023-10-23T22:52:53.894Z,7.76
2023-10-23T22:57:53.685Z,7.69
2023-10-23T23:02:53.692Z,7.59
2023-10-23T23:07:57.255Z,7.55
2023-10-23T23:12:54.800Z,7.37
2023-10-23T23:17:53.769Z,7.29
2023-10-23T23:22:53.879Z,7.27
2023-10-23T23:27:53.384Z,7.27
2023-10-23T23:32:53.344Z,7.31
2023-10-23T23:37:53.534Z,7.22
2023-10-23T23:42:54.918Z,7.21
2023-10-23T23:47:53.280Z,7.17
2023-10-23T23:52:53.588Z,7.20
2023-10-23T23:57:53.567Z,7.18
